Time;durP1;ratioP1;P1;durP2;ratioP2;P2;SDS_P1;SDS_P2;PMS_P1;PMS_P2;Temp;Humidity;BMP_temperature;BMP_pressure;BME280_temperature;BME280_humidity;BME280_pressure;Samples;Min_cycle;Max_cycle;Signal;HPM_P1;HPM_P2
2022/09/03 00:01:07;;;;;;;2.88;0.98;;;17.50;60.00;;;;;;5051364;28;20469;-66
2022/09/03 00:03:42;;;;;;;1.40;0.80;;;17.50;60.10;;;;;;5051763;28;20041;-66
2022/09/03 00:06:30;;;;;;;3.42;0.98;;;17.50;60.10;;;;;;5051443;28;20044;-66
2022/09/03 00:09:13;;;;;;;7.55;1.13;;;17.50;60.10;;;;;;5051713;28;20041;-67
2022/09/03 00:11:44;;;;;;;4.10;0.85;;;17.40;60.20;;;;;;5051602;28;20036;-67
2022/09/03 00:14:19;;;;;;;5.20;1.75;;;17.40;60.30;;;;;;5050539;28;20080;-66
2022/09/03 00:16:55;;;;;;;3.72;1.70;;;17.40;60.40;;;;;;5051571;28;20110;-67
2022/09/03 00:19:28;;;;;;;6.30;1.92;;;17.40;60.70;;;;;;5051299;28;20120;-66
2022/09/03 00:21:59;;;;;;;5.93;2.40;;;17.30;60.60;;;;;;5051428;28;20052;-66
2022/09/03 00:24:29;;;;;;;9.85;3.50;;;17.30;60.70;;;;;;5051483;28;20044;-66
2022/09/03 00:27:01;;;;;;;11.10;5.40;;;17.30;60.80;;;;;;5051139;28;20043;-66
2022/09/03 00:29:42;;;;;;;12.70;5.40;;;17.20;60.90;;;;;;5051324;28;20044;-66
2022/09/03 00:32:22;;;;;;;10.82;6.55;;;17.20;61.10;;;;;;5051473;28;20045;-66
2022/09/03 00:34:56;;;;;;;18.15;8.57;;;17.20;61.20;;;;;;5051370;28;20041;-66
2022/09/03 00:37:22;;;;;;;12.98;6.78;;;17.20;61.10;;;;;;5051187;28;20052;-66
2022/09/03 00:39:48;;;;;;;10.35;6.30;;;17.10;61.20;;;;;;5054877;28;20037;-66
2022/09/03 00:42:49;;;;;;;7.80;5.13;;;17.10;61.30;;;;;;5055186;28;20101;-67
2022/09/03 00:45:41;;;;;;;6.85;3.50;;;17.00;61.20;;;;;;5055012;28;20040;-66
2022/09/03 00:48:21;;;;;;;6.95;2.78;;;17.00;61.40;;;;;;5047427;28;20048;-66
2022/09/03 00:51:01;;;;;;;4.53;1.75;;;17.10;61.50;;;;;;5054817;28;20388;-66
2022/09/03 00:53:30;;;;;;;4.72;1.50;;;17.10;61.50;;;;;;5054894;28;20112;-66
2022/09/03 00:56:18;;;;;;;1.88;1.27;;;17.10;61.60;;;;;;5054860;28;20072;-66
2022/09/03 00:58:56;;;;;;;5.45;1.20;;;17.10;61.50;;;;;;5054820;28;20530;-66
2022/09/03 01:01:36;;;;;;;5.35;1.20;;;17.00;61.60;;;;;;5054605;28;20041;-66
2022/09/03 01:04:26;;;;;;;1.63;0.80;;;17.00;61.70;;;;;;5054767;28;20116;-67
2022/09/03 01:07:08;;;;;;;1.75;0.80;;;17.00;61.80;;;;;;5054735;28;20095;-66
2022/09/03 01:10:01;;;;;;;7.18;1.00;;;16.90;61.90;;;;;;5054393;28;20041;-66
2022/09/03 01:12:29;;;;;;;;;;;16.80;62.10;;;;;;5055070;28;20103;-66
2022/09/03 01:15:22;;;;;;;3.08;1.08;;;16.80;62.10;;;;;;5054456;28;19916;-66
2022/09/03 01:18:08;;;;;;;1.25;0.55;;;16.80;62.60;;;;;;5054641;28;20049;-66
2022/09/03 01:20:44;;;;;;;1.15;0.55;;;16.70;62.60;;;;;;5054535;28;20049;-66
2022/09/03 01:23:34;;;;;;;4.13;1.33;;;16.70;62.70;;;;;;5054365;28;20037;-66
2022/09/03 01:26:34;;;;;;;3.03;0.98;;;16.70;62.70;;;;;;5054103;28;20494;-67
2022/09/03 01:29:34;;;;;;;3.30;0.73;;;16.70;62.70;;;;;;5054198;28;20044;-66
2022/09/03 01:32:28;;;;;;;3.90;1.08;;;16.60;63.00;;;;;;5054477;28;20076;-66
2022/09/03 01:35:15;;;;;;;1.25;0.73;;;16.60;63.00;;;;;;5054327;28;20449;-66
2022/09/03 01:38:11;;;;;;;3.05;0.82;;;16.60;62.90;;;;;;5054117;28;20041;-66
2022/09/03 01:42:14;;;;;;;2.70;0.82;;;16.60;63.10;;;;;;5054171;28;20045;-67
2022/09/03 01:44:10;;;;;;;6.50;0.90;;;16.60;63.10;;;;;;5053891;28;20049;-66
2022/09/03 01:46:40;;;;;;;1.48;0.85;;;16.50;63.40;;;;;;5046389;28;20076;-66
2022/09/03 01:49:36;;;;;;;4.05;0.77;;;16.50;63.60;;;;;;5053063;28;20502;-66
2022/09/03 01:52:11;;;;;;;2.17;0.98;;;16.40;63.90;;;;;;5053989;28;20052;-66
2022/09/03 01:55:00;;;;;;;5.35;0.80;;;16.40;63.90;;;;;;5053756;28;20041;-66
2022/09/03 01:57:54;;;;;;;5.55;0.95;;;16.40;64.00;;;;;;5053825;28;20116;-67
2022/09/03 02:00:21;;;;;;;1.48;0.60;;;16.40;64.20;;;;;;5053371;28;20044;-66
2022/09/03 02:02:50;;;;;;;1.20;0.75;;;16.30;64.20;;;;;;5053563;28;20087;-66
2022/09/03 02:05:20;;;;;;;5.65;0.85;;;16.30;64.40;;;;;;5053727;28;20401;-66
2022/09/03 02:08:00;;;;;;;1.98;1.00;;;16.30;64.50;;;;;;5053647;28;20039;-66
2022/09/03 02:10:46;;;;;;;3.08;0.77;;;16.30;64.70;;;;;;5053321;28;20123;-66
2022/09/03 02:13:39;;;;;;;3.13;0.80;;;16.10;64.90;;;;;;5053417;28;20041;-66
2022/09/03 02:16:13;;;;;;;3.95;0.80;;;16.10;64.90;;;;;;5053555;28;20099;-66
2022/09/03 02:18:44;;;;;;;4.07;1.00;;;16.10;65.10;;;;;;5053497;28;20048;-66
2022/09/03 02:21:14;;;;;;;4.65;0.70;;;16.10;65.20;;;;;;5053036;28;20037;-66
2022/09/03 02:23:41;;;;;;;2.85;0.90;;;16.10;65.50;;;;;;5053253;28;20076;-66
2022/09/03 02:26:08;;;;;;;2.40;1.08;;;16.10;65.50;;;;;;5077651;22;20469;-68
2022/09/03 02:28:34;;;;;;;2.70;0.80;;;16.00;65.80;;;;;;5053201;28;20033;-67
2022/09/03 02:31:00;;;;;;;2.53;1.50;;;16.00;66.00;;;;;;5050984;28;20040;-67
2022/09/03 02:33:26;;;;;;;1.90;1.00;;;15.90;66.10;;;;;;5052063;28;20047;-67
2022/09/03 02:35:52;;;;;;;2.83;0.90;;;15.90;66.40;;;;;;5052811;28;20406;-67
2022/09/03 02:38:21;;;;;;;2.33;1.05;;;15.80;66.50;;;;;;5052421;28;20151;-67
2022/09/03 02:40:47;;;;;;;3.45;1.10;;;15.80;66.80;;;;;;5052631;28;20037;-67
2022/09/03 02:43:28;;;;;;;4.78;1.30;;;15.80;67.00;;;;;;5052889;28;20047;-67
2022/09/03 02:46:00;;;;;;;1.60;0.90;;;15.70;67.50;;;;;;5052744;28;20048;-67
2022/09/03 02:48:26;;;;;;;4.47;0.80;;;15.70;67.50;;;;;;5052782;28;20166;-67
2022/09/03 02:50:52;;;;;;;2.03;1.00;;;15.60;67.80;;;;;;5052579;28;20052;-67
2022/09/03 02:53:18;;;;;;;2.50;1.35;;;15.70;68.00;;;;;;5052783;28;20033;-67
2022/09/03 02:55:43;;;;;;;4.28;0.93;;;15.60;68.10;;;;;;5052695;28;20037;-67
2022/09/03 02:58:10;;;;;;;3.80;1.13;;;15.60;68.20;;;;;;5052317;28;20121;-67
2022/09/03 03:00:36;;;;;;;3.60;1.00;;;15.60;68.60;;;;;;5051929;28;20094;-67
2022/09/03 03:03:03;;;;;;;2.88;0.90;;;15.60;68.60;;;;;;5052360;28;20119;-68
2022/09/03 03:05:46;;;;;;;0.98;0.70;;;15.50;68.90;;;;;;5052318;28;20138;-67
2022/09/03 03:08:13;;;;;;;4.60;1.10;;;15.50;69.20;;;;;;5051167;28;20588;-67
2022/09/03 03:10:40;;;;;;;4.22;1.10;;;15.50;69.30;;;;;;5052145;28;20056;-67
2022/09/03 03:13:06;;;;;;;1.55;1.00;;;15.50;69.30;;;;;;5052274;28;20041;-68
2022/09/03 03:15:31;;;;;;;3.42;1.05;;;15.50;69.60;;;;;;5052182;28;20047;-67
2022/09/03 03:17:57;;;;;;;2.13;1.00;;;15.50;69.70;;;;;;5052118;28;20045;-67
2022/09/03 03:20:23;;;;;;;2.80;0.80;;;15.50;69.80;;;;;;5051869;28;20037;-67
2022/09/03 03:22:48;;;;;;;2.92;1.20;;;15.50;70.00;;;;;;5052159;28;20552;-67
2022/09/03 03:25:14;;;;;;;2.25;1.10;;;15.50;70.10;;;;;;5052132;28;20033;-67
2022/09/03 03:27:42;;;;;;;2.03;1.17;;;15.50;70.40;;;;;;5051927;28;20039;-67
2022/09/03 03:30:09;;;;;;;2.53;1.40;;;15.50;70.30;;;;;;5050489;28;20043;-67
2022/09/03 03:32:38;;;;;;;1.80;0.88;;;15.50;70.40;;;;;;5050887;28;20045;-67
2022/09/03 03:35:05;;;;;;;2.35;1.35;;;15.50;70.60;;;;;;5052056;28;20033;-67
2022/09/03 03:37:31;;;;;;;3.15;1.20;;;15.50;70.70;;;;;;5051785;28;20510;-67
2022/09/03 03:39:57;;;;;;;3.95;1.00;;;15.50;71.10;;;;;;5051657;28;20383;-67
2022/09/03 03:42:23;;;;;;;4.72;1.10;;;15.40;71.30;;;;;;5051768;28;20044;-67
2022/09/03 03:44:48;;;;;;;3.85;1.30;;;15.40;71.20;;;;;;5050506;28;20041;-67
2022/09/03 03:47:15;;;;;;;2.13;1.20;;;15.40;71.50;;;;;;5051771;28;20048;-67
2022/09/03 03:49:42;;;;;;;3.72;1.27;;;15.40;71.60;;;;;;5051604;28;20040;-67
2022/09/03 03:52:07;;;;;;;3.67;1.10;;;15.40;71.80;;;;;;5051799;28;20095;-67
2022/09/03 03:54:33;;;;;;;1.88;1.42;;;15.40;71.80;;;;;;5051699;28;20049;-67
2022/09/03 03:56:58;;;;;;;4.75;1.40;;;15.40;72.00;;;;;;5033666;28;20116;-67
2022/09/03 03:59:24;;;;;;;2.38;1.20;;;15.30;72.20;;;;;;5051217;28;20471;-67
2022/09/03 04:01:50;;;;;;;2.70;1.33;;;15.30;72.60;;;;;;5051750;28;20051;-67
2022/09/03 04:04:16;;;;;;;1.65;1.30;;;15.30;72.80;;;;;;5051690;28;20117;-67
2022/09/03 04:06:41;;;;;;;2.90;1.20;;;15.30;72.90;;;;;;5051584;28;20033;-67
2022/09/03 04:09:07;;;;;;;4.50;1.38;;;15.20;73.20;;;;;;5051468;28;20086;-67
2022/09/03 04:11:33;;;;;;;2.88;1.50;;;15.30;73.60;;;;;;5051258;28;20076;-68
2022/09/03 04:13:58;;;;;;;2.45;1.30;;;15.20;73.70;;;;;;5054341;28;20051;-67
2022/09/03 04:16:26;;;;;;;3.22;1.52;;;15.20;73.90;;;;;;5055575;28;20044;-67
2022/09/03 04:18:54;;;;;;;2.63;1.50;;;15.20;74.20;;;;;;5055693;28;20086;-67
2022/09/03 04:21:25;;;;;;;2.22;1.58;;;15.20;74.40;;;;;;5054068;28;20048;-67
2022/09/03 04:23:51;;;;;;;2.42;1.60;;;15.10;74.70;;;;;;5055610;28;20044;-67
2022/09/03 04:26:23;;;;;;;3.70;1.30;;;15.20;74.90;;;;;;5037559;28;20051;-67
2022/09/03 04:28:48;;;;;;;6.07;1.45;;;15.20;75.10;;;;;;5055376;28;20494;-67
2022/09/03 04:31:15;;;;;;;3.08;1.48;;;15.10;75.30;;;;;;5053772;28;20052;-67
2022/09/03 04:33:42;;;;;;;3.33;1.70;;;15.10;75.50;;;;;;5055418;28;20083;-67
2022/09/03 04:36:19;;;;;;;3.60;1.42;;;15.20;75.60;;;;;;5055317;28;20545;-67
2022/09/03 04:38:47;;;;;;;3.92;1.63;;;15.20;75.70;;;;;;5055157;28;20076;-67
2022/09/03 04:41:16;;;;;;;1.58;1.17;;;15.10;76.00;;;;;;5054457;28;20136;-67
2022/09/03 04:43:42;;;;;;;5.13;1.88;;;15.20;76.20;;;;;;5055060;28;20498;-67
2022/09/03 04:46:10;;;;;;;3.10;1.35;;;15.10;76.20;;;;;;5055196;28;20123;-67
2022/09/03 04:48:36;;;;;;;2.42;1.40;;;15.10;76.60;;;;;;5055051;28;20106;-67
2022/09/03 04:51:12;;;;;;;2.65;1.50;;;15.10;76.60;;;;;;5054671;28;20037;-67
2022/09/03 04:53:40;;;;;;;4.32;1.60;;;15.10;76.80;;;;;;5054786;28;20491;-67
2022/09/03 04:56:17;;;;;;;2.55;1.90;;;15.10;77.10;;;;;;5054828;28;20045;-67
2022/09/03 04:58:43;;;;;;;3.10;1.60;;;15.10;77.40;;;;;;5054944;28;20033;-67
2022/09/03 05:01:16;;;;;;;2.80;1.70;;;15.10;77.70;;;;;;5053121;28;20040;-68
2022/09/03 05:03:42;;;;;;;1.88;1.30;;;15.10;77.80;;;;;;5054820;28;20421;-67
2022/09/03 05:06:08;;;;;;;2.20;1.50;;;15.00;78.10;;;;;;5054585;28;20029;-67
2022/09/03 05:08:36;;;;;;;2.80;1.65;;;15.00;78.30;;;;;;5054794;28;20045;-67
2022/09/03 05:11:05;;;;;;;4.10;1.67;;;15.00;78.50;;;;;;5054315;28;20052;-67
2022/09/03 05:13:32;;;;;;;2.85;1.73;;;14.90;78.90;;;;;;5054442;28;20586;-68
2022/09/03 05:15:59;;;;;;;7.43;1.92;;;14.90;79.30;;;;;;5054514;28;20048;-67
2022/09/03 05:18:25;;;;;;;2.75;1.60;;;14.90;79.40;;;;;;5054381;28;20032;-67
2022/09/03 05:21:07;;;;;;;3.75;1.50;;;14.90;79.60;;;;;;5054031;28;20055;-68
2022/09/03 05:23:41;;;;;;;5.38;2.08;;;14.80;79.80;;;;;;5054671;28;20037;-67
2022/09/03 05:26:09;;;;;;;2.50;1.95;;;14.80;80.30;;;;;;5054303;28;20040;-67
2022/09/03 05:28:37;;;;;;;3.10;2.10;;;14.80;80.40;;;;;;5054470;28;20070;-67
2022/09/03 05:31:12;;;;;;;3.90;1.75;;;14.80;80.70;;;;;;5053999;28;20056;-67
2022/09/03 05:33:41;;;;;;;2.70;1.60;;;14.90;80.50;;;;;;5054509;28;20040;-67
2022/09/03 05:36:10;;;;;;;3.90;2.05;;;14.90;80.80;;;;;;5054369;28;20045;-67
2022/09/03 05:38:36;;;;;;;2.92;1.80;;;15.00;80.60;;;;;;5054480;28;20041;-67
2022/09/03 05:41:04;;;;;;;3.40;1.52;;;15.00;80.50;;;;;;5053786;28;20080;-67
2022/09/03 05:43:30;;;;;;;4.70;2.10;;;15.00;80.30;;;;;;5053945;28;20037;-67
2022/09/03 05:46:01;;;;;;;2.20;1.63;;;15.10;80.10;;;;;;5054195;28;20040;-67
2022/09/03 05:48:29;;;;;;;3.13;1.65;;;15.20;79.90;;;;;;5054157;28;20043;-67
2022/09/03 05:51:08;;;;;;;2.38;1.63;;;15.20;79.80;;;;;;5053684;28;20037;-67
2022/09/03 05:53:36;;;;;;;2.05;1.65;;;15.30;79.50;;;;;;5052797;28;20474;-67
2022/09/03 05:56:05;;;;;;;7.25;1.83;;;15.40;79.10;;;;;;5053581;28;20506;-67
2022/09/03 05:58:32;;;;;;;4.45;2.33;;;15.40;79.20;;;;;;5053738;28;20094;-67
2022/09/03 06:00:58;;;;;;;3.45;1.73;;;15.50;78.90;;;;;;5053498;28;20412;-67
2022/09/03 06:03:23;;;;;;;7.25;2.30;;;15.60;78.60;;;;;;5053763;28;20037;-67
2022/09/03 06:05:53;;;;;;;3.70;2.00;;;15.70;78.50;;;;;;5053597;28;20431;-67
2022/09/03 06:08:19;;;;;;;2.17;1.67;;;15.80;77.80;;;;;;5053595;28;20033;-68
2022/09/03 06:10:45;;;;;;;2.72;1.80;;;15.90;77.30;;;;;;5053098;28;20036;-68
2022/09/03 06:13:10;;;;;;;3.20;2.17;;;15.90;77.10;;;;;;5053618;28;20291;-67
2022/09/03 06:15:36;;;;;;;2.03;1.63;;;16.00;76.40;;;;;;5053518;28;20043;-67
2022/09/03 06:18:02;;;;;;;4.10;1.50;;;16.10;76.00;;;;;;5053607;28;20128;-67
2022/09/03 06:20:28;;;;;;;2.92;1.85;;;16.30;75.60;;;;;;5052975;28;20067;-67
2022/09/03 06:22:54;;;;;;;2.67;1.50;;;16.50;75.20;;;;;;5053212;28;20513;-67
2022/09/03 06:25:20;;;;;;;2.58;1.88;;;16.60;74.50;;;;;;5053156;28;20033;-67
2022/09/03 06:27:46;;;;;;;2.95;1.60;;;16.60;74.20;;;;;;5053055;28;20153;-67
2022/09/03 06:30:12;;;;;;;2.80;2.13;;;16.60;74.80;;;;;;5053024;28;20213;-68
2022/09/03 06:32:51;;;;;;;3.00;1.50;;;16.70;73.90;;;;;;5053150;28;20041;-68
2022/09/03 06:35:17;;;;;;;3.45;1.60;;;16.70;73.90;;;;;;5052564;28;20118;-68
2022/09/03 06:37:43;;;;;;;2.80;1.50;;;16.80;73.90;;;;;;5052723;28;20080;-67
2022/09/03 06:40:12;;;;;;;4.40;1.58;;;17.00;73.60;;;;;;5052865;28;20128;-67
2022/09/03 06:42:41;;;;;;;2.60;1.63;;;17.10;72.80;;;;;;5053155;28;20120;-67
2022/09/03 06:45:10;;;;;;;3.47;1.70;;;17.20;72.40;;;;;;5052943;28;20121;-66
2022/09/03 06:47:35;;;;;;;2.85;1.70;;;17.40;71.90;;;;;;5052632;28;20468;-66
2022/09/03 06:50:01;;;;;;;3.92;1.45;;;17.50;71.40;;;;;;5052574;28;20072;-67
2022/09/03 06:52:27;;;;;;;3.60;1.90;;;17.30;71.30;;;;;;5053104;28;20033;-66
2022/09/03 06:54:53;;;;;;;2.08;1.58;;;17.60;71.10;;;;;;5052888;28;20045;-67
2022/09/03 06:57:19;;;;;;;5.00;1.65;;;17.60;70.70;;;;;;5052700;28;20048;-67
2022/09/03 06:59:44;;;;;;;4.03;1.75;;;17.70;70.60;;;;;;5052367;28;20417;-66
2022/09/03 07:02:10;;;;;;;2.28;1.50;;;17.90;70.00;;;;;;5052401;28;20120;-66
2022/09/03 07:04:35;;;;;;;1.80;1.40;;;18.00;69.80;;;;;;5052445;28;20044;-66
2022/09/03 07:07:01;;;;;;;3.42;1.80;;;18.20;69.50;;;;;;5052152;28;20041;-66
2022/09/03 07:09:27;;;;;;;2.90;1.52;;;18.20;69.10;;;;;;5052277;28;20033;-67
2022/09/03 07:11:53;;;;;;;12.95;3.13;;;18.50;68.60;;;;;;5052395;28;20091;-66
2022/09/03 07:14:20;;;;;;;2.22;1.48;;;18.50;68.30;;;;;;5052361;28;20044;-67
2022/09/03 07:16:48;;;;;;;4.00;1.50;;;18.70;67.90;;;;;;5052276;28;20049;-67
2022/09/03 07:19:13;;;;;;;3.33;1.50;;;18.80;67.70;;;;;;5051894;28;20041;-67
2022/09/03 07:21:40;;;;;;;3.75;1.95;;;19.00;67.30;;;;;;5051911;28;20052;-67
2022/09/03 07:24:07;;;;;;;2.40;1.08;;;19.10;66.70;;;;;;5052330;28;20041;-66
2022/09/03 07:26:43;;;;;;;3.28;1.38;;;19.30;66.20;;;;;;5052094;28;20045;-67
2022/09/03 07:29:10;;;;;;;2.85;1.63;;;19.50;65.60;;;;;;5051922;28;20417;-67
2022/09/03 07:31:38;;;;;;;3.95;2.00;;;19.60;65.20;;;;;;5050859;28;20406;-67
2022/09/03 07:34:06;;;;;;;3.83;1.27;;;19.50;64.80;;;;;;5051885;28;20051;-67
2022/09/03 07:36:44;;;;;;;2.33;1.20;;;19.80;64.30;;;;;;5052031;28;20072;-67
2022/09/03 07:39:11;;;;;;;2.20;1.20;;;19.70;63.30;;;;;;5051886;28;20045;-66
2022/09/03 07:41:37;;;;;;;3.08;1.35;;;19.70;63.20;;;;;;5051875;28;20040;-67
2022/09/03 07:44:06;;;;;;;1.35;1.13;;;19.70;63.30;;;;;;5051785;28;20037;-67
2022/09/03 07:46:34;;;;;;;2.47;1.52;;;19.70;63.30;;;;;;5051504;28;20041;-66
2022/09/03 07:49:03;;;;;;;2.75;1.40;;;19.90;62.70;;;;;;5051200;28;20108;-67
2022/09/03 07:51:31;;;;;;;2.58;1.40;;;20.00;62.20;;;;;;5051538;28;20048;-67
2022/09/03 07:54:01;;;;;;;2.28;1.30;;;20.10;62.10;;;;;;5050421;28;20053;-67
2022/09/03 07:56:29;;;;;;;2.58;1.20;;;20.00;61.60;;;;;;5051661;28;20037;-67
2022/09/03 07:58:55;;;;;;;2.00;1.50;;;20.10;61.50;;;;;;5051564;28;20049;-67
2022/09/03 08:01:23;;;;;;;1.90;1.20;;;20.20;60.90;;;;;;5051443;28;20163;-67
2022/09/03 08:03:52;;;;;;;2.88;1.30;;;20.20;61.00;;;;;;5045260;28;20079;-67
2022/09/03 08:06:19;;;;;;;5.45;1.45;;;20.40;60.90;;;;;;5049946;28;20041;-67
2022/09/03 08:08:45;;;;;;;4.88;1.98;;;20.40;60.80;;;;;;5051371;28;20033;-67
2022/09/03 08:11:16;;;;;;;3.38;1.23;;;20.60;60.50;;;;;;5051135;28;20040;-67
2022/09/03 08:13:44;;;;;;;4.10;1.35;;;20.60;59.90;;;;;;5033780;28;20052;-67
2022/09/03 08:16:11;;;;;;;4.20;1.50;;;20.70;60.00;;;;;;5051620;28;20041;-68
2022/09/03 08:18:37;;;;;;;2.42;1.10;;;20.80;59.80;;;;;;5051560;28;20056;-68
2022/09/03 08:21:09;;;;;;;3.95;1.20;;;21.00;59.50;;;;;;5049851;28;20049;-67
2022/09/03 08:23:39;;;;;;;4.43;1.60;;;20.90;59.30;;;;;;5051383;28;20056;-67
2022/09/03 08:26:05;;;;;;;3.00;1.63;;;21.00;58.90;;;;;;5074226;22;20045;-66
2022/09/03 08:28:33;;;;;;;4.03;1.42;;;21.10;58.50;;;;;;5051474;28;20120;-67
2022/09/03 08:31:11;;;;;;;4.20;1.50;;;21.20;58.60;;;;;;5050686;28;20066;-67
2022/09/03 08:33:42;;;;;;;4.82;1.25;;;21.10;58.50;;;;;;5051254;28;20569;-67
2022/09/03 08:36:13;;;;;;;7.03;1.25;;;21.20;58.80;;;;;;5050535;28;20055;-67
2022/09/03 08:38:41;;;;;;;8.25;2.53;;;21.40;58.30;;;;;;5050880;28;20052;-67
2022/09/03 08:41:17;;;;;;;4.15;1.25;;;21.40;58.10;;;;;;5049463;28;20041;-67
2022/09/03 08:44:05;;;;;;;5.78;1.45;;;21.50;58.00;;;;;;5051321;28;20408;-67
2022/09/03 08:46:50;;;;;;;4.03;1.40;;;21.60;57.80;;;;;;5051095;28;20095;-67
2022/09/03 08:49:26;;;;;;;2.55;1.50;;;21.60;57.50;;;;;;5050945;28;20045;-67
2022/09/03 08:51:54;;;;;;;2.85;1.38;;;21.80;57.80;;;;;;5051417;28;20045;-67
2022/09/03 08:54:26;;;;;;;2.03;1.40;;;21.70;57.00;;;;;;5049902;28;20041;-67
2022/09/03 08:56:53;;;;;;;3.35;1.13;;;22.00;57.40;;;;;;5050928;28;20044;-67
2022/09/03 08:59:20;;;;;;;3.83;1.40;;;22.00;56.80;;;;;;5052343;28;20160;-67
2022/09/03 09:02:05;;;;;;;2.08;1.17;;;21.90;56.60;;;;;;5054874;28;20146;-68
2022/09/03 09:04:52;;;;;;;4.07;1.95;;;21.80;56.80;;;;;;5054907;28;20037;-67
2022/09/03 09:07:27;;;;;;;5.25;1.20;;;21.90;56.50;;;;;;5054663;28;20044;-67
2022/09/03 09:10:02;;;;;;;5.22;1.50;;;21.90;56.80;;;;;;5053052;28;20037;-67
2022/09/03 09:12:40;;;;;;;5.70;1.20;;;21.80;56.20;;;;;;5054655;28;20041;-67
2022/09/03 09:15:39;;;;;;;3.33;1.30;;;21.90;56.60;;;;;;5054509;28;20498;-67
2022/09/03 09:18:39;;;;;;;2.50;1.45;;;21.90;56.60;;;;;;5054309;28;20083;-68
2022/09/03 09:21:12;;;;;;;3.55;1.02;;;21.90;56.20;;;;;;5054280;28;20033;-67
2022/09/03 09:23:48;;;;;;;;;;;21.80;56.20;;;;;;5054974;28;20135;-68
2022/09/03 09:26:20;;;;;;;2.83;1.00;;;21.90;56.10;;;;;;5054196;28;21550;-67
2022/09/03 09:28:49;;;;;;;2.23;1.10;;;21.90;56.20;;;;;;5054589;28;20095;-67
2022/09/03 09:31:17;;;;;;;7.40;1.35;;;21.90;55.80;;;;;;5053876;28;20640;-67
2022/09/03 09:33:43;;;;;;;3.30;1.20;;;22.10;55.80;;;;;;5054335;28;20115;-67
2022/09/03 09:36:14;;;;;;;8.25;1.55;;;22.10;55.40;;;;;;5054167;28;20506;-68
2022/09/03 09:38:40;;;;;;;4.20;1.30;;;22.20;55.50;;;;;;5054184;28;20052;-67
2022/09/03 09:41:10;;;;;;;3.42;1.15;;;22.20;55.00;;;;;;5052431;28;20101;-67
2022/09/03 09:43:37;;;;;;;5.40;0.90;;;22.30;55.30;;;;;;5054201;28;20108;-68
2022/09/03 09:46:25;;;;;;;4.20;1.25;;;22.30;54.80;;;;;;5054117;28;20090;-68
2022/09/03 09:48:56;;;;;;;2.08;1.38;;;22.40;54.80;;;;;;5052573;28;20041;-68
2022/09/03 09:51:29;;;;;;;4.93;1.40;;;22.40;54.70;;;;;;5053590;28;20049;-68
2022/09/03 09:54:07;;;;;;;4.47;1.10;;;22.30;54.30;;;;;;5054032;28;20379;-68
2022/09/03 09:56:33;;;;;;;5.07;1.27;;;22.40;54.00;;;;;;5053832;28;20044;-68
2022/09/03 09:59:03;;;;;;;2.08;0.95;;;22.30;54.60;;;;;;5053811;28;20041;-68
2022/09/03 10:01:30;;;;;;;3.38;1.10;;;22.40;54.30;;;;;;5053258;28;20044;-69
2022/09/03 10:04:07;;;;;;;4.22;1.08;;;22.50;54.20;;;;;;5052551;28;20068;-68
2022/09/03 10:09:22;;;;;;;4.25;1.10;;;22.70;54.00;;;;;;5053277;28;20052;-69
2022/09/03 10:12:05;;;;;;;3.33;1.75;;;22.80;53.90;;;;;;5052557;28;20052;-68
2022/09/03 10:15:16;;;;;;;3.80;1.25;;;22.90;53.80;;;;;;5053494;28;20052;-68
2022/09/03 10:18:14;;;;;;;5.72;1.00;;;23.00;53.20;;;;;;5038084;28;20053;-68
2022/09/03 10:20:47;;;;;;;2.53;0.80;;;23.00;52.80;;;;;;5052953;28;20048;-68
2022/09/03 10:23:24;;;;;;;4.22;0.98;;;23.00;52.00;;;;;;5053536;28;20043;-69
2022/09/03 10:26:10;;;;;;;3.65;1.08;;;23.00;51.80;;;;;;5053397;28;20036;-69
2022/09/03 10:28:41;;;;;;;4.95;1.05;;;23.00;51.20;;;;;;5053230;28;20063;-69
2022/09/03 10:31:29;;;;;;;3.17;1.00;;;23.00;51.10;;;;;;5051498;28;20090;-69
2022/09/03 10:33:58;;;;;;;4.15;1.13;;;23.10;51.60;;;;;;5053242;28;20110;-69
2022/09/03 10:36:33;;;;;;;6.57;1.05;;;23.20;51.30;;;;;;5053026;28;20041;-69
2022/09/03 10:39:17;;;;;;;2.83;0.80;;;23.30;50.70;;;;;;5053077;28;20519;-69
2022/09/03 10:42:12;;;;;;;6.38;1.20;;;23.30;50.30;;;;;;5053045;28;20120;-69
2022/09/03 10:44:59;;;;;;;5.72;1.30;;;23.30;50.00;;;;;;5052371;28;20051;-69
2022/09/03 10:47:42;;;;;;;4.07;1.23;;;23.30;50.30;;;;;;5052798;28;20037;-68
2022/09/03 10:50:15;;;;;;;3.70;0.95;;;23.30;49.60;;;;;;5052753;28;20045;-70
2022/09/03 10:52:57;;;;;;;;;;;23.20;48.90;;;;;;5053391;28;20063;-68
2022/09/03 10:56:03;;;;;;;7.10;1.23;;;23.20;48.70;;;;;;5052815;28;19917;-68
2022/09/03 10:58:47;;;;;;;2.67;0.88;;;23.20;48.70;;;;;;5052831;28;20048;-68
2022/09/03 11:01:21;;;;;;;5.38;0.90;;;23.30;48.50;;;;;;5052221;28;20075;-69
2022/09/03 11:04:27;;;;;;;1.90;0.55;;;23.50;48.30;;;;;;5052538;28;20056;-68
2022/09/03 11:07:00;;;;;;;7.07;1.42;;;23.40;47.40;;;;;;5022583;28;20064;-68
2022/09/03 11:09:38;;;;;;;2.38;0.90;;;23.60;47.40;;;;;;5052276;28;20037;-69
2022/09/03 11:12:33;;;;;;;5.13;1.15;;;23.60;47.30;;;;;;5052499;28;20114;-70
2022/09/03 11:15:19;;;;;;;2.40;0.88;;;23.60;47.50;;;;;;5045270;28;20053;-68
2022/09/03 11:17:55;;;;;;;2.17;0.73;;;23.70;47.00;;;;;;5052389;28;20048;-68
2022/09/03 11:20:24;;;;;;;2.80;0.60;;;23.70;46.40;;;;;;5052136;28;20044;-68
2022/09/03 11:22:54;;;;;;;6.53;1.10;;;23.80;46.90;;;;;;5051938;28;20380;-68
2022/09/03 11:25:31;;;;;;;5.55;1.20;;;23.80;46.40;;;;;;5052137;28;20041;-68
2022/09/03 11:28:34;;;;;;;4.68;1.63;;;23.90;46.30;;;;;;5051864;28;20091;-68
2022/09/03 11:31:33;;;;;;;5.38;0.85;;;23.90;45.80;;;;;;5038206;28;20072;-68
2022/09/03 11:34:12;;;;;;;3.45;0.70;;;23.90;46.30;;;;;;5052202;28;20116;-69
2022/09/03 11:36:39;;;;;;;4.72;0.80;;;23.80;45.80;;;;;;5051985;28;20037;-68
2022/09/03 11:39:37;;;;;;;2.90;0.90;;;23.90;45.90;;;;;;5051799;28;20037;-68
2022/09/03 11:42:09;;;;;;;5.03;1.33;;;23.90;45.40;;;;;;5051681;28;20059;-68
2022/09/03 11:44:41;;;;;;;5.00;1.42;;;23.80;44.90;;;;;;5050756;28;20077;-68
2022/09/03 11:47:37;;;;;;;2.50;0.80;;;23.80;45.00;;;;;;5050801;28;20056;-68
2022/09/03 11:50:11;;;;;;;4.80;1.17;;;23.80;44.90;;;;;;5050142;28;20302;-68
2022/09/03 11:52:39;;;;;;;1.83;1.15;;;23.90;45.00;;;;;;5051724;28;20494;-68
2022/09/03 11:55:06;;;;;;;6.40;0.93;;;23.90;44.90;;;;;;5051878;28;20052;-68
2022/09/03 11:57:38;;;;;;;1.73;0.70;;;23.90;44.60;;;;;;5051726;28;20115;-67
2022/09/03 12:00:20;;;;;;;4.23;0.90;;;23.90;45.00;;;;;;5051203;28;20488;-68
2022/09/03 12:03:04;;;;;;;2.17;1.20;;;23.90;44.60;;;;;;5050189;28;20037;-70
2022/09/03 12:06:02;;;;;;;3.28;1.05;;;23.90;44.80;;;;;;5051301;28;20098;-70
2022/09/03 12:09:01;;;;;;;2.42;1.40;;;24.00;44.50;;;;;;5051713;28;20041;-70
2022/09/03 12:11:34;;;;;;;3.97;1.13;;;24.00;44.10;;;;;;5051352;28;20045;-70
2022/09/03 12:14:35;;;;;;;2.53;0.73;;;23.90;44.10;;;;;;5033690;28;20056;-70
2022/09/03 12:17:43;;;;;;;6.50;1.10;;;23.90;44.70;;;;;;5052124;28;20127;-70
2022/09/03 12:20:14;;;;;;;2.95;0.70;;;23.90;44.20;;;;;;5037196;28;20579;-70
2022/09/03 12:22:40;;;;;;;1.05;0.68;;;24.00;44.70;;;;;;5051623;28;20033;-70
2022/09/03 12:25:14;;;;;;;1.52;0.80;;;24.10;44.30;;;;;;5051505;28;20048;-70
2022/09/03 12:27:43;;;;;;;2.80;0.85;;;24.10;43.60;;;;;;5051187;28;20086;-70
2022/09/03 12:30:22;;;;;;;1.65;0.60;;;24.10;43.70;;;;;;5051242;28;20045;-70
2022/09/03 12:32:48;;;;;;;4.00;1.08;;;24.30;43.00;;;;;;5051383;28;20510;-70
2022/09/03 12:35:23;;;;;;;3.75;0.95;;;24.30;43.20;;;;;;5054755;28;20273;-70
2022/09/03 12:37:51;;;;;;;1.95;0.93;;;24.30;43.50;;;;;;5055428;28;20033;-70
2022/09/03 12:40:26;;;;;;;2.80;0.85;;;24.30;43.40;;;;;;5054963;28;20124;-70
2022/09/03 12:42:52;;;;;;;2.42;0.82;;;24.30;43.20;;;;;;5055126;28;20659;-70
2022/09/03 12:45:21;;;;;;;9.38;1.73;;;24.20;43.10;;;;;;5055333;28;20041;-70
2022/09/03 12:47:46;;;;;;;4.40;0.90;;;24.20;43.20;;;;;;5053816;28;20121;-70
2022/09/03 12:50:19;;;;;;;4.32;1.15;;;24.20;42.90;;;;;;5054916;28;20467;-70
2022/09/03 12:52:45;;;;;;;2.63;0.90;;;24.10;42.80;;;;;;5054903;28;20498;-70
2022/09/03 12:55:35;;;;;;;1.33;0.82;;;24.10;42.90;;;;;;5054996;28;20093;-70
2022/09/03 12:58:16;;;;;;;3.35;0.82;;;24.20;42.80;;;;;;5054892;28;20041;-70
2022/09/03 13:00:50;;;;;;;3.70;0.82;;;24.10;42.90;;;;;;5054699;28;20120;-70
2022/09/03 13:03:27;;;;;;;5.18;1.08;;;24.20;42.50;;;;;;5054901;28;20410;-70
2022/09/03 13:06:07;;;;;;;3.60;0.80;;;24.20;42.60;;;;;;5054812;28;20048;-70
2022/09/03 13:08:51;;;;;;;10.88;6.53;;;24.10;42.50;;;;;;5054934;28;20068;-70
2022/09/03 13:11:20;;;;;;;3.20;0.80;;;24.20;43.50;;;;;;5053244;28;20041;-70
2022/09/03 13:14:10;;;;;;;5.78;1.05;;;24.20;42.80;;;;;;5054890;28;20032;-70
2022/09/03 13:16:44;;;;;;;3.88;0.98;;;24.30;42.30;;;;;;5053635;28;20102;-70
2022/09/03 13:19:40;;;;;;;3.95;0.98;;;24.30;42.60;;;;;;5054485;28;20036;-70
2022/09/03 13:22:20;;;;;;;4.88;0.80;;;24.40;42.00;;;;;;5054344;28;20534;-70
2022/09/03 13:25:27;;;;;;;4.63;0.60;;;24.40;42.10;;;;;;5053549;28;20064;-70